Time;durP1;ratioP1;P1;durP2;ratioP2;P2;SDS_P1;SDS_P2;PMS_P1;PMS_P2;Temp;Humidity;BMP_temperature;BMP_pressure;BME280_temperature;BME280_humidity;BME280_pressure;Samples;Min_cycle;Max_cycle;Signal;HPM_P1;HPM_P2
2023/04/07 00:00:28;;;;;;;0.10;0.10;;;9.10;68.70;;;;;;5096425;28;20027;-77
2023/04/07 00:02:54;;;;;;;0.30;0.30;;;9.20;69.20;;;;;;5091404;28;20509;-75
2023/04/07 00:05:20;;;;;;;0.10;0.10;;;9.20;68.50;;;;;;5096544;28;20035;-78
2023/04/07 00:07:46;;;;;;;0.10;0.10;;;9.10;68.60;;;;;;5094943;28;20027;-75
2023/04/07 00:10:11;;;;;;;0.55;0.55;;;9.00;69.00;;;;;;5094907;28;20047;-75
2023/04/07 00:12:37;;;;;;;0.10;0.10;;;9.00;68.90;;;;;;5092378;28;20775;-76
2023/04/07 00:15:03;;;;;;;0.22;0.15;;;8.90;69.10;;;;;;5088979;28;20691;-76
2023/04/07 00:17:29;;;;;;;0.10;0.10;;;8.80;69.40;;;;;;5089823;28;20182;-75
2023/04/07 00:19:54;;;;;;;0.20;0.20;;;9.00;69.10;;;;;;5097558;28;20028;-75
2023/04/07 00:22:21;;;;;;;0.30;0.30;;;8.90;69.00;;;;;;5094273;28;20131;-76
2023/04/07 00:24:46;;;;;;;0.10;0.10;;;8.90;69.00;;;;;;5090251;28;20743;-76
2023/04/07 00:27:12;;;;;;;0.00;0.00;;;8.80;69.30;;;;;;5087497;28;20355;-77
2023/04/07 00:29:38;;;;;;;0.13;0.13;;;8.80;69.40;;;;;;5093995;28;20052;-76
2023/04/07 00:32:03;;;;;;;0.20;0.20;;;8.70;70.00;;;;;;5096990;28;20035;-76
2023/04/07 00:34:29;;;;;;;0.10;0.10;;;8.70;70.10;;;;;;5098400;28;20394;-76
2023/04/07 00:36:55;;;;;;;0.20;0.20;;;8.70;70.40;;;;;;5092549;28;20734;-77
2023/04/07 00:39:20;;;;;;;0.20;0.20;;;8.60;70.70;;;;;;5099428;28;20056;-76
2023/04/07 00:41:47;;;;;;;0.35;0.35;;;8.80;70.60;;;;;;5083786;28;20090;-76
2023/04/07 00:44:13;;;;;;;0.00;0.00;;;8.80;70.60;;;;;;5088378;28;20032;-77
2023/04/07 00:46:39;;;;;;;0.10;0.10;;;8.70;70.80;;;;;;5092989;28;20023;-76
2023/04/07 00:49:06;;;;;;;0.43;0.43;;;8.70;71.00;;;;;;5096688;28;20034;-78
2023/04/07 00:51:32;;;;;;;0.00;0.00;;;8.70;71.40;;;;;;5099933;28;20036;-77
2023/04/07 00:53:59;;;;;;;0.00;0.00;;;8.60;72.00;;;;;;5092291;28;20024;-77
2023/04/07 00:56:24;;;;;;;0.30;0.30;;;8.60;72.50;;;;;;5072373;28;20118;-76
2023/04/07 00:58:50;;;;;;;0.22;0.22;;;8.60;73.20;;;;;;5092998;28;20947;-78
2023/04/07 01:01:23;;;;;;;0.38;0.38;;;8.50;73.90;;;;;;5095873;28;20032;-80
2023/04/07 01:04:00;;;;;;;0.08;0.08;;;8.40;74.20;;;;;;5086875;28;20051;-78
2023/04/07 01:06:30;;;;;;;0.13;0.13;;;8.40;74.40;;;;;;5083449;28;20097;-77
2023/04/07 01:09:01;;;;;;;0.20;0.20;;;8.40;74.90;;;;;;5095373;28;20023;-76
2023/04/07 01:11:41;;;;;;;0.15;0.15;;;8.30;75.30;;;;;;5098127;28;20039;-78
2023/04/07 01:14:10;;;;;;;0.20;0.20;;;8.30;75.70;;;;;;5092042;28;20043;-76
2023/04/07 01:16:44;;;;;;;0.20;0.20;;;8.20;75.90;;;;;;5093062;28;20058;-77
2023/04/07 01:19:34;;;;;;;0.10;0.10;;;8.10;76.50;;;;;;5093995;28;20160;-79
2023/04/07 01:22:00;;;;;;;0.10;0.10;;;7.90;77.00;;;;;;5096601;28;20071;-77
2023/04/07 01:25:02;;;;;;;0.00;0.00;;;7.90;77.30;;;;;;5097288;28;20032;-76
2023/04/07 01:27:49;;;;;;;0.17;0.17;;;7.90;78.20;;;;;;5002596;28;20448;-80
2023/04/07 01:30:17;;;;;;;0.20;0.20;;;7.80;78.90;;;;;;5092552;28;20051;-79
2023/04/07 01:32:45;;;;;;;0.10;0.10;;;7.70;79.70;;;;;;5093235;28;20024;-76
2023/04/07 01:35:13;;;;;;;1.65;0.30;;;7.60;80.30;;;;;;5098060;28;20022;-76
2023/04/07 01:37:39;;;;;;;0.22;0.22;;;7.60;80.90;;;;;;5098091;28;20081;-77
2023/04/07 01:40:07;;;;;;;0.00;0.00;;;7.50;81.50;;;;;;5102658;28;20054;-77
2023/04/07 01:42:35;;;;;;;0.10;0.10;;;7.50;81.90;;;;;;5101619;28;20024;-76
2023/04/07 01:45:03;;;;;;;0.10;0.10;;;7.40;82.10;;;;;;5103409;28;20402;-76
2023/04/07 01:47:29;;;;;;;0.10;0.10;;;7.40;82.40;;;;;;5105494;28;20028;-76
2023/04/07 01:50:03;;;;;;;0.00;0.00;;;7.30;82.80;;;;;;5102863;28;20027;-76
2023/04/07 01:52:29;;;;;;;0.22;0.22;;;7.30;83.40;;;;;;5094512;28;20039;-76
2023/04/07 01:54:56;;;;;;;0.88;0.28;;;7.30;83.70;;;;;;5100388;28;20107;-80
2023/04/07 01:57:22;;;;;;;0.28;0.28;;;7.20;84.30;;;;;;5095799;28;20507;-76
2023/04/07 01:59:47;;;;;;;0.20;0.20;;;7.10;84.80;;;;;;5100515;28;20073;-75
2023/04/07 02:02:13;;;;;;;0.45;0.17;;;7.00;85.20;;;;;;5093781;28;20035;-77
2023/04/07 02:04:55;;;;;;;0.10;0.10;;;7.00;85.70;;;;;;5095161;28;20097;-76
2023/04/07 02:07:29;;;;;;;0.00;0.00;;;7.00;86.00;;;;;;5092872;28;20027;-75
2023/04/07 02:09:59;;;;;;;0.10;0.10;;;7.00;85.80;;;;;;5093262;28;20103;-77
2023/04/07 02:12:27;;;;;;;0.10;0.10;;;7.00;86.00;;;;;;5096444;28;20024;-75
2023/04/07 02:14:55;;;;;;;0.28;0.28;;;6.90;86.50;;;;;;5100618;28;20035;-75
2023/04/07 02:17:23;;;;;;;0.00;0.00;;;6.90;86.90;;;;;;5099198;28;20024;-75
2023/04/07 02:19:51;;;;;;;0.08;0.08;;;6.80;87.50;;;;;;5083894;28;20028;-75
2023/04/07 02:22:17;;;;;;;0.05;0.05;;;6.80;87.80;;;;;;5105327;27;20060;-75
2023/04/07 02:24:43;;;;;;;0.00;0.00;;;6.70;88.50;;;;;;5103199;28;20027;-78
2023/04/07 02:27:09;;;;;;;0.10;0.10;;;6.60;88.90;;;;;;5105006;27;20476;-75
2023/04/07 02:29:35;;;;;;;0.22;0.22;;;6.60;89.20;;;;;;5094788;28;20814;-75
2023/04/07 02:32:00;;;;;;;0.10;0.10;;;6.60;89.20;;;;;;5100081;28;20060;-76
2023/04/07 02:34:26;;;;;;;0.47;0.47;;;6.60;89.50;;;;;;5091545;28;20581;-75
2023/04/07 02:36:52;;;;;;;0.03;0.03;;;6.60;89.50;;;;;;5092768;28;20758;-76
2023/04/07 02:39:17;;;;;;;0.05;0.05;;;6.60;89.60;;;;;;5093859;28;20051;-78
2023/04/07 02:41:43;;;;;;;1.98;0.55;;;6.60;89.80;;;;;;5101260;28;20031;-80
2023/04/07 02:44:09;;;;;;;0.30;0.30;;;6.60;90.00;;;;;;5101637;28;20119;-77
2023/04/07 02:46:34;;;;;;;1.10;1.10;;;6.60;90.00;;;;;;5099057;28;20730;-76
2023/04/07 02:49:00;;;;;;;0.13;0.13;;;6.70;89.70;;;;;;5095638;28;20141;-79
2023/04/07 02:51:26;;;;;;;0.22;0.20;;;6.60;89.70;;;;;;5090619;28;20043;-76
2023/04/07 02:53:52;;;;;;;0.17;0.17;;;6.50;90.00;;;;;;5096661;28;20032;-79
2023/04/07 02:56:17;;;;;;;0.40;0.40;;;6.60;90.00;;;;;;5095094;28;20019;-76
2023/04/07 02:58:43;;;;;;;0.10;0.10;;;6.60;90.00;;;;;;5091740;28;20087;-79
2023/04/07 03:01:09;;;;;;;0.10;0.10;;;6.60;90.00;;;;;;5098817;28;20035;-77
2023/04/07 03:03:34;;;;;;;0.20;0.20;;;6.60;90.00;;;;;;5088763;28;20721;-76
2023/04/07 03:06:00;;;;;;;0.10;0.10;;;6.60;90.00;;;;;;5095957;28;20055;-77
2023/04/07 03:08:26;;;;;;;0.10;0.10;;;6.50;90.10;;;;;;5098704;28;20019;-77
2023/04/07 03:10:52;;;;;;;0.05;0.05;;;6.50;90.10;;;;;;5095517;28;20085;-77
2023/04/07 03:13:19;;;;;;;0.10;0.10;;;6.50;90.30;;;;;;5091496;28;20039;-75
2023/04/07 03:15:46;;;;;;;0.30;0.15;;;6.40;90.30;;;;;;5096556;28;20035;-76
2023/04/07 03:18:12;;;;;;;0.20;0.20;;;6.40;90.40;;;;;;5088523;28;20023;-76
2023/04/07 03:20:37;;;;;;;0.00;0.00;;;6.40;90.40;;;;;;5091592;28;20912;-77
2023/04/07 03:23:03;;;;;;;0.10;0.10;;;6.40;90.50;;;;;;5097416;28;20794;-79
2023/04/07 03:25:29;;;;;;;0.63;0.57;;;6.30;90.60;;;;;;5092639;28;20046;-77
2023/04/07 03:27:55;;;;;;;0.10;0.10;;;6.30;90.80;;;;;;5091764;28;20115;-77
2023/04/07 03:30:20;;;;;;;0.10;0.10;;;6.20;90.80;;;;;;5094855;28;20122;-79
2023/04/07 03:32:46;;;;;;;0.10;0.10;;;6.10;91.10;;;;;;5088254;28;20023;-76
2023/04/07 03:35:12;;;;;;;0.00;0.00;;;6.10;91.40;;;;;;5100352;28;20024;-76
2023/04/07 03:37:37;;;;;;;0.52;0.52;;;6.10;91.30;;;;;;5100885;28;20881;-76
2023/04/07 03:40:03;;;;;;;0.00;0.00;;;6.10;91.30;;;;;;5097832;28;20055;-80
2023/04/07 03:42:29;;;;;;;0.20;0.20;;;6.10;91.50;;;;;;5092756;28;20032;-77
2023/04/07 03:44:55;;;;;;;0.10;0.10;;;6.00;91.60;;;;;;5089577;28;20027;-76
2023/04/07 03:47:21;;;;;;;0.00;0.00;;;6.00;91.70;;;;;;5092574;28;20024;-78
2023/04/07 03:49:47;;;;;;;0.28;0.28;;;5.90;91.80;;;;;;5092376;28;20740;-76
2023/04/07 03:52:12;;;;;;;0.25;0.25;;;5.90;92.20;;;;;;5091374;28;20036;-76
2023/04/07 03:54:38;;;;;;;0.20;0.20;;;5.90;91.80;;;;;;5090347;28;20020;-79
2023/04/07 03:57:04;;;;;;;0.00;0.00;;;5.90;91.80;;;;;;5093608;28;20095;-78
2023/04/07 03:59:30;;;;;;;0.00;0.00;;;5.90;91.70;;;;;;5091450;28;20051;-76
2023/04/07 04:01:55;;;;;;;2.55;1.13;;;5.80;92.00;;;;;;5092825;28;20031;-78
2023/04/07 04:04:23;;;;;;;0.00;0.00;;;5.70;92.30;;;;;;5090531;28;20075;-76
2023/04/07 04:06:49;;;;;;;0.00;0.00;;;5.70;92.30;;;;;;5098418;28;20490;-79
2023/04/07 04:09:15;;;;;;;0.10;0.10;;;5.70;92.40;;;;;;5094764;28;20062;-75
2023/04/07 04:11:41;;;;;;;0.00;0.00;;;5.50;92.60;;;;;;5097541;28;20499;-78
2023/04/07 04:14:07;;;;;;;0.28;0.28;;;5.50;93.00;;;;;;5088538;28;20519;-76
2023/04/07 04:16:34;;;;;;;0.10;0.10;;;5.40;93.20;;;;;;5099158;28;20032;-76
2023/04/07 04:19:00;;;;;;;0.10;0.10;;;5.40;93.40;;;;;;5087915;28;20032;-75
2023/04/07 04:21:26;;;;;;;0.00;0.00;;;5.40;93.40;;;;;;5093278;28;20070;-76
2023/04/07 04:23:52;;;;;;;0.08;0.08;;;5.50;93.20;;;;;;5101069;28;20032;-76
2023/04/07 04:26:18;;;;;;;0.10;0.10;;;5.50;93.30;;;;;;5091123;28;20024;-77
2023/04/07 04:28:44;;;;;;;0.20;0.20;;;5.70;93.20;;;;;;5099704;28;20023;-78
2023/04/07 04:31:09;;;;;;;0.00;0.00;;;5.70;93.00;;;;;;5099631;28;20032;-75
2023/04/07 04:33:35;;;;;;;0.52;0.52;;;5.70;93.00;;;;;;5089603;28;20474;-78
2023/04/07 04:36:01;;;;;;;0.00;0.00;;;5.60;93.10;;;;;;5076472;28;20494;-76
2023/04/07 04:38:26;;;;;;;0.10;0.10;;;5.50;93.50;;;;;;5098982;28;20132;-75
2023/04/07 04:40:52;;;;;;;0.40;0.30;;;5.40;93.60;;;;;;5099811;28;20085;-77
2023/04/07 04:43:18;;;;;;;0.00;0.00;;;5.30;94.10;;;;;;5087447;28;20141;-76
2023/04/07 04:45:43;;;;;;;1.10;0.73;;;5.30;94.20;;;;;;5095553;28;20196;-78
2023/04/07 04:48:10;;;;;;;0.30;0.30;;;5.30;94.10;;;;;;5084759;28;20036;-76
2023/04/07 04:50:36;;;;;;;0.10;0.10;;;5.10;94.60;;;;;;5101763;28;20700;-78
2023/04/07 04:53:01;;;;;;;0.40;0.40;;;5.10;94.80;;;;;;5101364;28;20106;-76
2023/04/07 04:55:27;;;;;;;0.15;0.15;;;5.00;95.20;;;;;;5093850;28;20122;-77
2023/04/07 04:57:53;;;;;;;2.55;1.17;;;4.80;95.50;;;;;;5075978;28;20056;-77
2023/04/07 05:00:19;;;;;;;0.10;0.10;;;4.80;95.90;;;;;;5092472;28;20031;-78
2023/04/07 05:02:45;;;;;;;0.40;0.40;;;4.80;96.10;;;;;;5084611;28;20819;-76
2023/04/07 05:05:11;;;;;;;0.43;0.43;;;4.90;96.00;;;;;;5098166;28;20027;-79
2023/04/07 05:07:39;;;;;;;0.03;0.03;;;4.90;96.00;;;;;;5087800;28;20043;-76
2023/04/07 05:10:06;;;;;;;0.25;0.25;;;4.90;96.10;;;;;;5089408;28;20024;-79
2023/04/07 05:12:31;;;;;;;;;;;4.90;96.00;;;;;;5092177;28;20799;-78
2023/04/07 05:14:57;;;;;;;0.10;0.10;;;4.90;96.00;;;;;;5091422;28;19912;-79
2023/04/07 05:17:23;;;;;;;0.17;0.17;;;5.00;96.00;;;;;;5092955;28;20110;-78
2023/04/07 05:19:48;;;;;;;0.50;0.50;;;5.00;95.70;;;;;;5096497;28;20034;-81
2023/04/07 05:22:15;;;;;;;0.20;0.20;;;4.90;96.00;;;;;;5092676;28;20063;-80
2023/04/07 05:24:40;;;;;;;0.00;0.00;;;5.00;95.90;;;;;;5090892;28;20031;-82
2023/04/07 05:27:06;;;;;;;0.20;0.20;;;4.90;95.90;;;;;;5097965;28;20491;-79
2023/04/07 05:29:32;;;;;;;0.08;0.08;;;5.00;95.90;;;;;;5093763;28;20032;-79
2023/04/07 05:31:57;;;;;;;0.10;0.10;;;5.00;95.80;;;;;;5089881;28;20466;-77
2023/04/07 05:34:23;;;;;;;0.28;0.20;;;5.20;95.50;;;;;;5096111;28;20038;-78
2023/04/07 05:36:49;;;;;;;0.17;0.17;;;5.30;95.30;;;;;;5098201;28;20032;-77
2023/04/07 05:39:14;;;;;;;1.95;0.95;;;5.90;94.00;;;;;;5092355;28;20373;-77
2023/04/07 05:41:41;;;;;;;0.35;0.35;;;6.60;92.20;;;;;;5084399;28;20477;-78
2023/04/07 05:44:06;;;;;;;0.00;0.00;;;7.00;91.00;;;;;;5097299;28;20024;-76
2023/04/07 05:46:32;;;;;;;0.40;0.25;;;7.40;90.10;;;;;;5098426;28;20031;-77
2023/04/07 05:48:58;;;;;;;0.00;0.00;;;7.70;88.70;;;;;;5091311;28;20094;-76
2023/04/07 05:51:25;;;;;;;0.25;0.25;;;8.10;86.70;;;;;;5094599;28;20452;-77
2023/04/07 05:53:50;;;;;;;0.43;0.40;;;8.30;86.30;;;;;;5096294;28;20471;-76
2023/04/07 05:56:16;;;;;;;0.13;0.13;;;8.70;85.10;;;;;;5076483;28;20038;-74
2023/04/07 05:58:42;;;;;;;0.30;0.30;;;8.70;84.50;;;;;;5103998;28;20116;-74
2023/04/07 06:01:07;;;;;;;0.40;0.40;;;8.70;84.30;;;;;;5104857;28;20034;-75
2023/04/07 06:03:33;;;;;;;0.17;0.17;;;8.20;86.00;;;;;;5105130;28;20032;-74
2023/04/07 06:05:58;;;;;;;0.85;0.57;;;8.10;86.60;;;;;;5098885;28;20028;-74
2023/04/07 06:08:24;;;;;;;0.43;0.43;;;8.40;85.30;;;;;;5104884;28;20570;-76
2023/04/07 06:10:50;;;;;;;0.20;0.20;;;8.60;85.50;;;;;;5104748;28;20051;-76
2023/04/07 06:13:16;;;;;;;0.10;0.10;;;8.80;84.10;;;;;;5092331;28;20038;-75
2023/04/07 06:15:41;;;;;;;0.82;0.82;;;8.90;83.80;;;;;;5102811;28;20465;-74
2023/04/07 06:18:07;;;;;;;0.10;0.10;;;9.40;82.80;;;;;;5103757;28;20119;-75
2023/04/07 06:20:33;;;;;;;0.65;0.65;;;9.80;80.80;;;;;;5101429;28;20032;-76
2023/04/07 06:22:58;;;;;;;0.20;0.20;;;9.90;80.90;;;;;;5074786;28;20027;-76
2023/04/07 06:25:24;;;;;;;0.10;0.10;;;9.40;80.80;;;;;;5088849;28;20035;-76
2023/04/07 06:27:50;;;;;;;0.15;0.15;;;8.20;85.80;;;;;;5100996;28;20028;-76
2023/04/07 06:30:16;;;;;;;1.95;0.70;;;9.50;82.80;;;;;;5102651;28;20027;-74
2023/04/07 06:32:42;;;;;;;0.30;0.30;;;10.00;80.70;;;;;;5104133;28;20027;-73
2023/04/07 06:35:08;;;;;;;0.10;0.10;;;10.20;80.20;;;;;;5101694;28;20028;-72
2023/04/07 06:37:34;;;;;;;0.10;0.10;;;10.30;79.90;;;;;;5105045;28;20024;-74
2023/04/07 06:39:59;;;;;;;0.40;0.40;;;10.60;79.20;;;;;;5093938;28;20115;-73
2023/04/07 06:42:25;;;;;;;0.87;0.60;;;10.60;79.50;;;;;;5103381;28;20032;-75
2023/04/07 06:44:51;;;;;;;0.10;0.10;;;10.60;78.00;;;;;;5083080;28;20032;-74
2023/04/07 06:47:17;;;;;;;0.10;0.10;;;10.40;79.90;;;;;;5100512;28;20542;-73
2023/04/07 06:49:43;;;;;;;0.47;0.47;;;11.50;77.00;;;;;;5102500;28;20053;-73
2023/04/07 06:52:08;;;;;;;0.23;0.23;;;11.70;76.10;;;;;;5095711;28;20039;-73
2023/04/07 06:54:34;;;;;;;0.10;0.10;;;12.20;75.70;;;;;;5099829;28;20108;-73
2023/04/07 06:57:00;;;;;;;0.10;0.10;;;12.50;74.10;;;;;;5098756;28;20813;-73
2023/04/07 06:59:26;;;;;;;0.33;0.33;;;12.60;72.30;;;;;;5104191;28;20051;-73
2023/04/07 07:01:51;;;;;;;0.00;0.00;;;12.60;72.60;;;;;;5103717;28;20023;-73
2023/04/07 07:04:17;;;;;;;0.10;0.10;;;13.50;71.00;;;;;;5097208;28;20510;-73
2023/04/07 07:06:43;;;;;;;6.67;1.13;;;13.50;69.10;;;;;;5094936;28;20020;-73
2023/04/07 07:09:08;;;;;;;1.07;0.57;;;13.30;70.30;;;;;;5102049;28;20458;-73
2023/04/07 07:11:34;;;;;;;0.10;0.10;;;13.00;71.60;;;;;;5098714;28;20032;-73
2023/04/07 07:14:00;;;;;;;0.10;0.10;;;12.70;71.10;;;;;;5100994;28;20032;-75
2023/04/07 07:16:25;;;;;;;0.20;0.20;;;13.00;70.70;;;;;;5088662;28;20078;-76
2023/04/07 07:18:51;;;;;;;0.00;0.00;;;13.50;70.20;;;;;;5094077;28;20031;-75
2023/04/07 07:21:17;;;;;;;0.10;0.10;;;13.60;69.40;;;;;;5094296;28;20031;-73
2023/04/07 07:23:43;;;;;;;0.22;0.15;;;13.70;70.00;;;;;;5100874;28;20140;-74
2023/04/07 07:26:09;;;;;;;0.20;0.20;;;13.90;68.70;;;;;;5095532;28;20031;-73
2023/04/07 07:28:35;;;;;;;0.20;0.20;;;14.30;67.70;;;;;;5102261;28;20031;-73
2023/04/07 07:31:08;;;;;;;0.37;0.30;;;14.30;67.40;;;;;;5103260;28;20774;-74
2023/04/07 07:33:34;;;;;;;0.70;0.38;;;14.50;67.70;;;;;;5096027;28;20028;-73
2023/04/07 07:36:00;;;;;;;0.20;0.20;;;14.80;65.30;;;;;;5099953;28;20030;-73
2023/04/07 07:38:26;;;;;;;0.27;0.27;;;14.90;66.30;;;;;;5102606;28;20652;-75
2023/04/07 07:40:52;;;;;;;0.10;0.10;;;15.30;65.80;;;;;;5096410;28;20503;-75
2023/04/07 07:43:18;;;;;;;0.03;0.03;;;15.80;65.50;;;;;;5088513;28;20539;-73
2023/04/07 07:45:43;;;;;;;2.80;0.67;;;16.10;63.30;;;;;;5099496;28;20047;-75
2023/04/07 07:48:10;;;;;;;0.00;0.00;;;16.70;61.70;;;;;;5103054;28;20024;-74
2023/04/07 07:50:35;;;;;;;0.17;0.17;;;16.70;61.80;;;;;;5069527;28;20039;-75
2023/04/07 07:53:01;;;;;;;0.07;0.07;;;16.40;61.30;;;;;;5093935;28;20036;-75
2023/04/07 07:55:27;;;;;;;0.00;0.00;;;16.70;60.90;;;;;;5093814;28;20144;-74
2023/04/07 07:57:52;;;;;;;0.50;0.50;;;17.00;61.90;;;;;;5089647;28;20426;-73
2023/04/07 08:00:18;;;;;;;1.83;0.73;;;17.10;62.40;;;;;;5086719;28;20484;-73
2023/04/07 08:02:44;;;;;;;0.00;0.00;;;17.80;60.30;;;;;;5095997;28;20479;-76
2023/04/07 08:05:10;;;;;;;0.13;0.13;;;18.30;59.50;;;;;;5099926;28;20837;-73
2023/04/07 08:07:36;;;;;;;0.00;0.00;;;18.00;58.90;;;;;;5095312;28;20825;-75
2023/04/07 08:10:02;;;;;;;5.60;1.75;;;17.70;57.90;;;;;;5089484;28;20024;-73
2023/04/07 08:12:27;;;;;;;0.00;0.00;;;18.20;58.20;;;;;;5096133;28;20102;-74
2023/04/07 08:14:53;;;;;;;0.37;0.37;;;19.00;58.40;;;;;;5089351;28;20024;-74
2023/04/07 08:17:19;;;;;;;0.43;0.43;;;18.80;57.50;;;;;;5101837;28;20027;-75
2023/04/07 08:19:45;;;;;;;0.00;0.00;;;19.20;56.80;;;;;;5099550;28;20111;-74
2023/04/07 08:22:11;;;;;;;0.00;0.00;;;19.40;56.40;;;;;;5095698;28;20219;-74
2023/04/07 08:24:36;;;;;;;0.10;0.10;;;19.50;57.20;;;;;;5088309;28;20812;-73
2023/04/07 08:27:02;;;;;;;0.40;0.40;;;19.30;55.80;;;;;;5092000;28;20050;-74
2023/04/07 08:29:28;;;;;;;0.37;0.37;;;20.40;55.40;;;;;;5093374;28;20024;-74
2023/04/07 08:31:53;;;;;;;0.10;0.10;;;20.60;56.20;;;;;;5087064;28;20046;-74
2023/04/07 08:34:20;;;;;;;0.10;0.10;;;20.70;54.90;;;;;;5091577;28;20028;-73
2023/04/07 08:36:46;;;;;;;0.45;0.13;;;20.70;53.80;;;;;;5101790;28;20024;-75
2023/04/07 08:39:11;;;;;;;0.03;0.03;;;19.90;54.80;;;;;;5099196;28;20536;-74
2023/04/07 08:41:39;;;;;;;0.03;0.03;;;20.30;56.20;;;;;;5092714;28;20150;-74
2023/04/07 08:44:06;;;;;;;0.05;0.05;;;19.80;54.10;;;;;;5098348;28;20733;-75
2023/04/07 08:46:33;;;;;;;0.47;0.45;;;20.20;56.00;;;;;;5099014;28;20081;-75
2023/04/07 08:49:00;;;;;;;0.47;0.40;;;19.50;57.10;;;;;;5094886;28;20027;-74
2023/04/07 08:51:28;;;;;;;0.40;0.40;;;19.10;56.30;;;;;;5097143;28;20102;-74
2023/04/07 08:54:07;;;;;;;0.57;0.35;;;19.80;56.00;;;;;;5101302;28;20028;-74
2023/04/07 08:56:33;;;;;;;0.00;0.00;;;20.10;55.80;;;;;;5090843;28;20048;-73
2023/04/07 08:59:00;;;;;;;0.32;0.32;;;19.90;57.90;;;;;;5092129;28;20020;-74
2023/04/07 09:01:26;;;;;;;0.20;0.20;;;20.00;56.30;;;;;;5064995;28;20072;-74
2023/04/07 09:03:52;;;;;;;0.00;0.00;;;19.80;56.20;;;;;;5099261;28;20114;-73
2023/04/07 09:06:18;;;;;;;0.10;0.10;;;20.30;57.00;;;;;;5100420;28;20110;-73
2023/04/07 09:08:44;;;;;;;0.20;0.20;;;20.40;56.60;;;;;;5099675;28;20027;-75
2023/04/07 09:11:11;;;;;;;0.07;0.07;;;20.40;56.10;;;;;;5093289;28;20036;-74
2023/04/07 09:13:36;;;;;;;;;;;20.80;55.30;;;;;;5091478;28;20098;-74
2023/04/07 09:16:02;;;;;;;0.30;0.30;;;21.50;53.60;;;;;;5093829;28;20010;-76
2023/04/07 09:18:28;;;;;;;0.00;0.00;;;21.30;56.80;;;;;;5098514;28;20049;-74
2023/04/07 09:21:02;;;;;;;0.00;0.00;;;21.90;54.30;;;;;;5095244;28;20446;-75
2023/04/07 09:23:31;;;;;;;0.13;0.13;;;21.80;52.70;;;;;;5097580;28;20024;-74
2023/04/07 09:26:00;;;;;;;0.00;0.00;;;21.50;52.40;;;;;;5092972;28;20031;-73
2023/04/07 09:28:40;;;;;;;0.00;0.00;;;22.10;52.80;;;;;;5090780;28;20108;-76
2023/04/07 09:31:06;;;;;;;0.00;0.00;;;21.70;53.80;;;;;;5101578;28;20485;-74
2023/04/07 09:33:33;;;;;;;0.00;0.00;;;22.00;52.30;;;;;;5100186;28;20024;-73
2023/04/07 09:35:59;;;;;;;0.00;0.00;;;22.40;52.60;;;;;;5106521;28;20024;-74
2023/04/07 09:38:36;;;;;;;0.00;0.00;;;23.30;51.40;;;;;;5103051;28;20028;-74
2023/04/07 09:41:10;;;;;;;0.00;0.00;;;23.10;51.50;;;;;;5102031;28;20032;-74
2023/04/07 09:43:43;;;;;;;1.05;0.43;;;25.40;49.40;;;;;;5096220;28;20022;-75
2023/04/07 09:46:14;;;;;;;0.65;0.52;;;23.50;48.80;;;;;;5086446;28;20107;-76
2023/04/07 09:48:41;;;;;;;0.30;0.30;;;22.50;50.30;;;;;;5097827;28;20027;-74
2023/04/07 09:51:12;;;;;;;0.00;0.00;;;22.70;48.10;;;;;;5103664;28;20031;-73
2023/04/07 09:53:43;;;;;;;0.00;0.00;;;24.30;49.10;;;;;;5101290;28;20103;-74
2023/04/07 09:56:10;;;;;;;0.35;0.35;;;24.00;49.70;;;;;;5105019;28;20027;-75
2023/04/07 09:58:39;;;;;;;0.08;0.08;;;24.00;49.10;;;;;;5102763;28;20020;-76
2023/04/07 10:01:10;;;;;;;0.00;0.00;;;23.30;49.60;;;;;;5101187;28;20028;-73
2023/04/07 10:03:36;;;;;;;0.08;0.08;;;22.30;50.80;;;;;;5097758;28;20046;-76
2023/04/07 10:06:03;;;;;;;0.88;0.68;;;23.90;49.50;;;;;;5097430;28;20055;-74
2023/04/07 10:08:31;;;;;;;0.00;0.00;;;25.30;46.70;;;;;;5102368;28;20031;-75
2023/04/07 10:11:00;;;;;;;0.15;0.15;;;23.60;47.20;;;;;;5091760;28;20040;-74
2023/04/07 10:13:27;;;;;;;0.05;0.05;;;19.70;52.90;;;;;;5088517;28;20034;-73
2023/04/07 10:15:53;;;;;;;0.15;0.15;;;20.60;52.00;;;;;;5101806;27;20687;-73
2023/04/07 10:18:20;;;;;;;0.00;0.00;;;20.20;55.20;;;;;;5095796;28;20028;-74
2023/04/07 10:20:48;;;;;;;0.00;0.00;;;21.30;51.40;;;;;;5099947;28;20127;-75
2023/04/07 10:23:21;;;;;;;0.10;0.10;;;20.50;50.70;;;;;;5095749;28;20020;-74
2023/04/07 10:25:49;;;;;;;0.17;0.13;;;19.10;54.60;;;;;;5099217;28;20482;-75
2023/04/07 10:28:16;;;;;;;0.17;0.17;;;18.70;55.70;;;;;;5103999;28;20398;-73
2023/04/07 10:30:43;;;;;;;0.25;0.25;;;18.30;56.40;;;;;;5100243;28;20433;-74
2023/04/07 10:33:09;;;;;;;0.17;0.17;;;17.80;56.30;;;;;;5101146;28;20106;-74
2023/04/07 10:36:04;;;;;;;0.00;0.00;;;18.80;56.80;;;;;;5102993;28;20031;-73
2023/04/07 10:38:30;;;;;;;0.45;0.45;;;19.60;55.80;;;;;;5098652;28;20505;-73
2023/04/07 10:40:56;;;;;;;0.00;0.00;;;18.80;54.30;;;;;;5100981;28;20551;-75
2023/04/07 10:43:40;;;;;;;0.00;0.00;;;19.00;55.50;;;;;;5097478;28;20784;-75
2023/04/07 10:46:06;;;;;;;0.00;0.00;;;18.70;56.30;;;;;;5094471;27;20024;-75
2023/04/07 10:48:32;;;;;;;0.00;0.00;;;18.30;58.90;;;;;;5101757;28;20031;-73
2023/04/07 10:51:03;;;;;;;0.43;0.30;;;17.50;57.30;;;;;;5104275;28;20044;-73
2023/04/07 10:53:37;;;;;;;0.00;0.00;;;18.70;60.90;;;;;;5100987;28;20097;-73
2023/04/07 10:56:04;;;;;;;1.02;0.40;;;18.70;58.10;;;;;;5102969;28;20024;-74
2023/04/07 10:58:33;;;;;;;0.00;0.00;;;18.30;58.00;;;;;;5090303;28;20035;-73
2023/04/07 11:00:59;;;;;;;0.00;0.00;;;19.10;58.60;;;;;;5097480;28;20035;-74
2023/04/07 11:03:27;;;;;;;0.00;0.00;;;19.20;55.10;;;;;;5095261;28;20032;-73
2023/04/07 11:06:01;;;;;;;0.00;0.00;;;19.50;51.90;;;;;;5095728;28;20028;-73
2023/04/07 11:08:34;;;;;;;0.10;0.10;;;19.40;53.20;;;;;;5090029;28;20521;-74
2023/04/07 11:10:59;;;;;;;0.00;0.00;;;19.80;53.80;;;;;;5089825;28;20051;-74
2023/04/07 11:13:26;;;;;;;3.13;0.40;;;19.30;53.70;;;;;;5102048;28;20024;-73
2023/04/07 11:15:52;;;;;;;0.00;0.00;;;18.80;53.40;;;;;;5089038;28;20582;-74
2023/04/07 11:18:20;;;;;;;0.00;0.00;;;17.80;56.60;;;;;;5092907;28;20031;-73
2023/04/07 11:20:54;;;;;;;0.17;0.17;;;17.70;56.70;;;;;;5089040;28;20024;-75
2023/04/07 11:23:22;;;;;;;0.22;0.22;;;17.20;56.40;;;;;;5097681;28;20502;-73
2023/04/07 11:25:50;;;;;;;0.00;0.00;;;17.50;58.10;;;;;;5070590;28;20690;-74
2023/04/07 11:28:16;;;;;;;0.10;0.10;;;17.40;56.60;;;;;;5088646;28;20023;-75
2023/04/07 11:30:46;;;;;;;0.08;0.08;;;17.50;54.60;;;;;;5102692;28;20031;-73
2023/04/07 11:33:20;;;;;;;0.00;0.00;;;17.20;53.50;;;;;;5103243;28;20019;-73
2023/04/07 11:36:00;;;;;;;0.00;0.00;;;17.50;53.20;;;;;;5094762;28;20043;-76
2023/04/07 11:38:27;;;;;;;0.00;0.00;;;17.50;55.10;;;;;;5102319;28;20443;-75
2023/04/07 11:40:55;;;;;;;0.10;0.10;;;17.60;58.50;;;;;;5102873;27;20063;-73
2023/04/07 11:43:26;;;;;;;0.10;0.10;;;17.70;55.60;;;;;;5086846;28;20106;-77
2023/04/07 11:46:11;;;;;;;0.52;0.05;;;17.30;54.40;;;;;;5096872;28;20355;-74
2023/04/07 11:48:39;;;;;;;0.10;0.10;;;17.10;54.70;;;;;;5087521;28;20080;-76
2023/04/07 11:51:05;;;;;;;0.00;0.00;;;16.80;51.20;;;;;;5100751;28;20498;-73
2023/04/07 11:53:33;;;;;;;0.00;0.00;;;16.80;51.50;;;;;;5099528;28;20043;-75
2023/04/07 11:56:05;;;;;;;0.10;0.10;;;16.40;48.80;;;;;;5093968;28;20035;-74
2023/04/07 11:58:31;;;;;;;0.00;0.00;;;16.80;53.00;;;;;;5082857;28;20136;-76
2023/04/07 12:01:04;;;;;;;0.00;0.00;;;16.70;50.60;;;;;;5082734;28;20078;-74
2023/04/07 12:03:30;;;;;;;0.00;0.00;;;16.70;51.60;;;;;;5072392;28;20036;-74
2023/04/07 12:05:55;;;;;;;0.00;0.00;;;16.80;53.10;;;;;;5075607;28;20044;-76
2023/04/07 12:08:36;;;;;;;0.00;0.00;;;16.90;52.90;;;;;;5080562;28;20029;-74
2023/04/07 12:11:03;;;;;;;0.10;0.10;;;16.30;52.80;;;;;;5078297;28;20097;-75
2023/04/07 12:13:30;;;;;;;0.00;0.00;;;16.70;55.40;;;;;;5079780;28;20085;-76
2023/04/07 12:15:57;;;;;;;0.20;0.20;;;16.80;52.40;;;;;;5081510;28;20020;-73
2023/04/07 12:18:24;;;;;;;0.47;0.47;;;16.90;55.10;;;;;;5075431;28;20067;-74
2023/04/07 12:20:50;;;;;;;0.03;0.03;;;17.10;55.60;;;;;;5081645;28;20791;-74
2023/04/07 12:23:15;;;;;;;0.00;0.00;;;17.20;55.80;;;;;;5057672;28;20991;-74
2023/04/07 12:25:41;;;;;;;0.10;0.10;;;17.20;53.50;;;;;;5062961;28;20036;-75
2023/04/07 12:28:07;;;;;;;0.00;0.00;;;16.80;52.50;;;;;;5079087;28;20149;-73
2023/04/07 12:30:32;;;;;;;0.00;0.00;;;16.60;51.50;;;;;;5080841;28;20020;-74
2023/04/07 12:32:58;;;;;;;0.00;0.00;;;16.60;51.70;;;;;;5082458;28;20051;-76
2023/04/07 12:35:24;;;;;;;0.00;0.00;;;16.70;55.00;;;;;;5081758;28;20089;-75
2023/04/07 12:37:51;;;;;;;0.20;0.17;;;16.90;53.00;;;;;;5078477;28;20028;-74
2023/04/07 12:40:17;;;;;;;0.10;0.10;;;16.70;53.50;;;;;;5076763;28;20111;-73
2023/04/07 12:42:43;;;;;;;0.00;0.00;;;16.50;52.10;;;;;;5080552;28;20026;-75
2023/04/07 12:45:09;;;;;;;0.30;0.30;;;16.60;54.50;;;;;;5081757;28;20488;-73
2023/04/07 12:47:34;;;;;;;0.10;0.10;;;16.50;54.90;;;;;;5081871;28;20016;-74
2023/04/07 12:50:00;;;;;;;0.10;0.10;;;16.70;56.10;;;;;;5073945;28;20620;-73
2023/04/07 12:52:26;;;;;;;0.10;0.10;;;16.90;56.40;;;;;;5081831;28;20036;-75